sensor_id;sensor_type;location;lat;lon;timestamp;P1;durP1;ratioP1;P2;durP2;ratioP2
9040;SDS011;4555;49.918;7.012;2022-10-17T00:00:42;0.77;;;0.50;;
9040;SDS011;4555;49.918;7.012;2022-10-17T00:03:08;0.27;;;0.27;;
9040;SDS011;4555;49.918;7.012;2022-10-17T00:05:37;0.30;;;0.20;;
9040;SDS011;4555;49.918;7.012;2022-10-17T00:08:05;0.23;;;0.23;;
9040;SDS011;4555;49.918;7.012;2022-10-17T00:10:30;0.20;;;0.20;;
9040;SDS011;4555;49.918;7.012;2022-10-17T00:12:56;0.10;;;0.10;;
9040;SDS011;4555;49.918;7.012;2022-10-17T00:15:22;0.33;;;0.33;;
9040;SDS011;4555;49.918;7.012;2022-10-17T00:17:47;0.30;;;0.30;;
9040;SDS011;4555;49.918;7.012;2022-10-17T00:20:14;0.30;;;0.30;;
9040;SDS011;4555;49.918;7.012;2022-10-17T00:22:40;0.20;;;0.20;;
9040;SDS011;4555;49.918;7.012;2022-10-17T00:25:06;0.10;;;0.10;;
9040;SDS011;4555;49.918;7.012;2022-10-17T00:27:36;0.33;;;0.33;;
9040;SDS011;4555;49.918;7.012;2022-10-17T00:30:03;0.27;;;0.20;;
9040;SDS011;4555;49.918;7.012;2022-10-17T00:32:30;0.20;;;0.20;;
9040;SDS011;4555;49.918;7.012;2022-10-17T00:34:57;0.30;;;0.30;;
9040;SDS011;4555;49.918;7.012;2022-10-17T00:37:23;0.20;;;0.20;;
9040;SDS011;4555;49.918;7.012;2022-10-17T00:39:49;0.20;;;0.20;;
9040;SDS011;4555;49.918;7.012;2022-10-17T00:42:15;0.30;;;0.30;;
9040;SDS011;4555;49.918;7.012;2022-10-17T00:47:12;0.30;;;0.30;;
9040;SDS011;4555;49.918;7.012;2022-10-17T00:49:40;0.13;;;0.13;;
9040;SDS011;4555;49.918;7.012;2022-10-17T00:52:13;0.30;;;0.30;;
9040;SDS011;4555;49.918;7.012;2022-10-17T00:54:51;0.13;;;0.13;;
9040;SDS011;4555;49.918;7.012;2022-10-17T00:57:23;0.23;;;0.23;;
9040;SDS011;4555;49.918;7.012;2022-10-17T00:59:50;0.17;;;0.17;;
9040;SDS011;4555;49.918;7.012;2022-10-17T01:02:20;0.20;;;0.20;;
9040;SDS011;4555;49.918;7.012;2022-10-17T01:04:47;0.10;;;0.10;;
9040;SDS011;4555;49.918;7.012;2022-10-17T01:07:15;0.20;;;0.20;;
9040;SDS011;4555;49.918;7.012;2022-10-17T01:09:41;0.40;;;0.40;;
9040;SDS011;4555;49.918;7.012;2022-10-17T01:12:15;0.30;;;0.30;;
9040;SDS011;4555;49.918;7.012;2022-10-17T01:17:44;0.13;;;0.13;;
9040;SDS011;4555;49.918;7.012;2022-10-17T01:26:00;0.30;;;0.30;;
9040;SDS011;4555;49.918;7.012;2022-10-17T01:31:46;0.20;;;0.20;;
9040;SDS011;4555;49.918;7.012;2022-10-17T01:34:19;0.10;;;0.10;;
9040;SDS011;4555;49.918;7.012;2022-10-17T01:36:57;0.37;;;0.37;;
9040;SDS011;4555;49.918;7.012;2022-10-17T01:42:27;0.20;;;0.20;;
9040;SDS011;4555;49.918;7.012;2022-10-17T01:45:21;0.20;;;0.20;;
9040;SDS011;4555;49.918;7.012;2022-10-17T01:47:53;0.10;;;0.10;;
9040;SDS011;4555;49.918;7.012;2022-10-17T01:50:23;0.30;;;0.30;;
9040;SDS011;4555;49.918;7.012;2022-10-17T01:52:59;0.60;;;0.60;;
9040;SDS011;4555;49.918;7.012;2022-10-17T01:55:35;0.47;;;0.47;;
9040;SDS011;4555;49.918;7.012;2022-10-17T01:58:05;0.03;;;0.03;;
9040;SDS011;4555;49.918;7.012;2022-10-17T02:00:38;0.00;;;0.00;;
9040;SDS011;4555;49.918;7.012;2022-10-17T02:03:07;0.10;;;0.10;;
9040;SDS011;4555;49.918;7.012;2022-10-17T02:05:38;0.23;;;0.23;;
9040;SDS011;4555;49.918;7.012;2022-10-17T02:08:05;0.40;;;0.30;;
9040;SDS011;4555;49.918;7.012;2022-10-17T02:10:43;0.10;;;0.10;;
9040;SDS011;4555;49.918;7.012;2022-10-17T02:13:28;0.67;;;0.47;;
9040;SDS011;4555;49.918;7.012;2022-10-17T02:16:11;0.23;;;0.23;;
9040;SDS011;4555;49.918;7.012;2022-10-17T02:19:02;0.20;;;0.20;;
9040;SDS011;4555;49.918;7.012;2022-10-17T02:24:11;0.17;;;0.17;;
9040;SDS011;4555;49.918;7.012;2022-10-17T02:33:10;0.10;;;0.10;;
9040;SDS011;4555;49.918;7.012;2022-10-17T02:35:44;0.40;;;0.40;;
9040;SDS011;4555;49.918;7.012;2022-10-17T02:38:14;0.20;;;0.20;;
9040;SDS011;4555;49.918;7.012;2022-10-17T02:40:41;0.20;;;0.20;;
9040;SDS011;4555;49.918;7.012;2022-10-17T02:43:10;0.10;;;0.10;;
9040;SDS011;4555;49.918;7.012;2022-10-17T02:45:37;0.20;;;0.20;;
9040;SDS011;4555;49.918;7.012;2022-10-17T02:48:08;0.20;;;0.20;;
9040;SDS011;4555;49.918;7.012;2022-10-17T02:53:19;0.30;;;0.30;;
9040;SDS011;4555;49.918;7.012;2022-10-17T02:55:53;0.30;;;0.30;;
9040;SDS011;4555;49.918;7.012;2022-10-17T02:58:24;0.10;;;0.10;;
9040;SDS011;4555;49.918;7.012;2022-10-17T03:00:54;0.17;;;0.17;;
9040;SDS011;4555;49.918;7.012;2022-10-17T03:03:24;0.10;;;0.10;;
9040;SDS011;4555;49.918;7.012;2022-10-17T03:05:59;0.17;;;0.17;;
9040;SDS011;4555;49.918;7.012;2022-10-17T03:08:24;0.10;;;0.10;;
9040;SDS011;4555;49.918;7.012;2022-10-17T03:10:50;0.10;;;0.10;;
9040;SDS011;4555;49.918;7.012;2022-10-17T03:13:17;0.03;;;0.03;;
9040;SDS011;4555;49.918;7.012;2022-10-17T03:15:43;0.23;;;0.23;;
9040;SDS011;4555;49.918;7.012;2022-10-17T03:18:09;0.10;;;0.10;;
9040;SDS011;4555;49.918;7.012;2022-10-17T03:20:35;0.17;;;0.17;;
9040;SDS011;4555;49.918;7.012;2022-10-17T03:23:00;0.20;;;0.20;;
9040;SDS011;4555;49.918;7.012;2022-10-17T03:25:27;0.37;;;0.37;;
9040;SDS011;4555;49.918;7.012;2022-10-17T03:27:53;0.27;;;0.27;;
9040;SDS011;4555;49.918;7.012;2022-10-17T03:30:19;0.03;;;0.03;;
9040;SDS011;4555;49.918;7.012;2022-10-17T03:32:45;0.40;;;0.40;;
9040;SDS011;4555;49.918;7.012;2022-10-17T03:35:10;0.53;;;0.53;;
9040;SDS011;4555;49.918;7.012;2022-10-17T03:37:37;0.20;;;0.20;;
9040;SDS011;4555;49.918;7.012;2022-10-17T03:40:03;0.00;;;0.00;;
9040;SDS011;4555;49.918;7.012;2022-10-17T03:42:30;0.00;;;0.00;;
9040;SDS011;4555;49.918;7.012;2022-10-17T03:44:56;0.40;;;0.23;;
9040;SDS011;4555;49.918;7.012;2022-10-17T03:47:22;0.57;;;0.57;;
9040;SDS011;4555;49.918;7.012;2022-10-17T03:49:48;0.63;;;0.63;;
9040;SDS011;4555;49.918;7.012;2022-10-17T03:52:14;0.30;;;0.30;;
9040;SDS011;4555;49.918;7.012;2022-10-17T03:54:40;0.10;;;0.10;;
9040;SDS011;4555;49.918;7.012;2022-10-17T03:57:05;0.20;;;0.20;;
9040;SDS011;4555;49.918;7.012;2022-10-17T03:59:31;0.20;;;0.20;;
9040;SDS011;4555;49.918;7.012;2022-10-17T04:02:02;0.20;;;0.20;;
9040;SDS011;4555;49.918;7.012;2022-10-17T04:04:28;0.40;;;0.30;;
9040;SDS011;4555;49.918;7.012;2022-10-17T04:06:54;0.30;;;0.30;;
9040;SDS011;4555;49.918;7.012;2022-10-17T04:09:19;0.20;;;0.20;;
9040;SDS011;4555;49.918;7.012;2022-10-17T04:11:54;0.00;;;0.00;;
9040;SDS011;4555;49.918;7.012;2022-10-17T04:14:21;0.10;;;0.10;;
9040;SDS011;4555;49.918;7.012;2022-10-17T04:16:46;0.10;;;0.10;;
9040;SDS011;4555;49.918;7.012;2022-10-17T04:19:17;0.23;;;0.23;;
9040;SDS011;4555;49.918;7.012;2022-10-17T04:21:45;0.20;;;0.20;;
9040;SDS011;4555;49.918;7.012;2022-10-17T04:24:12;0.10;;;0.10;;
9040;SDS011;4555;49.918;7.012;2022-10-17T04:26:40;0.10;;;0.10;;
9040;SDS011;4555;49.918;7.012;2022-10-17T04:29:06;0.20;;;0.20;;
9040;SDS011;4555;49.918;7.012;2022-10-17T04:31:31;0.30;;;0.30;;
9040;SDS011;4555;49.918;7.012;2022-10-17T04:34:06;0.20;;;0.20;;
9040;SDS011;4555;49.918;7.012;2022-10-17T04:36:32;0.37;;;0.37;;
9040;SDS011;4555;49.918;7.012;2022-10-17T04:38:59;0.40;;;0.30;;
9040;SDS011;4555;49.918;7.012;2022-10-17T04:41:28;0.50;;;0.50;;
9040;SDS011;4555;49.918;7.012;2022-10-17T04:43:54;0.33;;;0.33;;
9040;SDS011;4555;49.918;7.012;2022-10-17T04:46:20;0.10;;;0.10;;
9040;SDS011;4555;49.918;7.012;2022-10-17T04:48:47;0.23;;;0.23;;
9040;SDS011;4555;49.918;7.012;2022-10-17T04:51:14;0.00;;;0.00;;
9040;SDS011;4555;49.918;7.012;2022-10-17T04:54:00;0.40;;;0.40;;
9040;SDS011;4555;49.918;7.012;2022-10-17T04:56:26;0.13;;;0.13;;
9040;SDS011;4555;49.918;7.012;2022-10-17T04:58:52;0.30;;;0.30;;
9040;SDS011;4555;49.918;7.012;2022-10-17T05:01:20;0.03;;;0.03;;
9040;SDS011;4555;49.918;7.012;2022-10-17T05:03:51;0.17;;;0.17;;
9040;SDS011;4555;49.918;7.012;2022-10-17T05:06:21;0.30;;;0.30;;
9040;SDS011;4555;49.918;7.012;2022-10-17T05:09:07;0.10;;;0.10;;
9040;SDS011;4555;49.918;7.012;2022-10-17T05:11:33;0.30;;;0.30;;
9040;SDS011;4555;49.918;7.012;2022-10-17T05:14:00;0.10;;;0.10;;
9040;SDS011;4555;49.918;7.012;2022-10-17T05:16:29;0.20;;;0.20;;
9040;SDS011;4555;49.918;7.012;2022-10-17T05:18:56;0.00;;;0.00;;
9040;SDS011;4555;49.918;7.012;2022-10-17T05:21:26;0.10;;;0.10;;
9040;SDS011;4555;49.918;7.012;2022-10-17T05:23:53;0.03;;;0.03;;
9040;SDS011;4555;49.918;7.012;2022-10-17T05:26:21;0.10;;;0.10;;
9040;SDS011;4555;49.918;7.012;2022-10-17T05:28:47;0.10;;;0.10;;
9040;SDS011;4555;49.918;7.012;2022-10-17T05:31:14;0.27;;;0.27;;
9040;SDS011;4555;49.918;7.012;2022-10-17T05:33:40;0.20;;;0.20;;
9040;SDS011;4555;49.918;7.012;2022-10-17T05:36:06;0.03;;;0.03;;
9040;SDS011;4555;49.918;7.012;2022-10-17T05:38:33;0.20;;;0.20;;
9040;SDS011;4555;49.918;7.012;2022-10-17T05:41:00;0.37;;;0.37;;
9040;SDS011;4555;49.918;7.012;2022-10-17T05:43:28;0.17;;;0.17;;
9040;SDS011;4555;49.918;7.012;2022-10-17T05:45:54;0.10;;;0.10;;
9040;SDS011;4555;49.918;7.012;2022-10-17T05:48:21;0.30;;;0.30;;
9040;SDS011;4555;49.918;7.012;2022-10-17T05:50:48;0.07;;;0.07;;
9040;SDS011;4555;49.918;7.012;2022-10-17T05:53:16;0.00;;;0.00;;
9040;SDS011;4555;49.918;7.012;2022-10-17T05:55:57;0.30;;;0.30;;
9040;SDS011;4555;49.918;7.012;2022-10-17T05:58:24;0.00;;;0.00;;
9040;SDS011;4555;49.918;7.012;2022-10-17T06:00:58;0.10;;;0.10;;
9040;SDS011;4555;49.918;7.012;2022-10-17T06:03:26;0.10;;;0.10;;
9040;SDS011;4555;49.918;7.012;2022-10-17T06:05:52;0.13;;;0.13;;
9040;SDS011;4555;49.918;7.012;2022-10-17T06:08:19;0.27;;;0.27;;
9040;SDS011;4555;49.918;7.012;2022-10-17T06:10:46;0.00;;;0.00;;
9040;SDS011;4555;49.918;7.012;2022-10-17T06:13:13;0.10;;;0.10;;
9040;SDS011;4555;49.918;7.012;2022-10-17T06:15:39;0.13;;;0.13;;
9040;SDS011;4555;49.918;7.012;2022-10-17T06:18:06;0.40;;;0.07;;
9040;SDS011;4555;49.918;7.012;2022-10-17T06:20:32;0.30;;;0.30;;
9040;SDS011;4555;49.918;7.012;2022-10-17T06:22:58;0.13;;;0.13;;
9040;SDS011;4555;49.918;7.012;2022-10-17T06:25:50;0.23;;;0.23;;
9040;SDS011;4555;49.918;7.012;2022-10-17T06:28:15;0.17;;;0.17;;
9040;SDS011;4555;49.918;7.012;2022-10-17T06:30:41;0.00;;;0.00;;
9040;SDS011;4555;49.918;7.012;2022-10-17T06:33:07;0.37;;;0.37;;
9040;SDS011;4555;49.918;7.012;2022-10-17T06:35:33;0.17;;;0.17;;
9040;SDS011;4555;49.918;7.012;2022-10-17T06:37:59;0.10;;;0.10;;
9040;SDS011;4555;49.918;7.012;2022-10-17T06:40:24;0.37;;;0.37;;
9040;SDS011;4555;49.918;7.012;2022-10-17T06:42:50;0.90;;;0.20;;
9040;SDS011;4555;49.918;7.012;2022-10-17T06:45:24;0.30;;;0.30;;
9040;SDS011;4555;49.918;7.012;2022-10-17T06:48:11;0.20;;;0.20;;
9040;SDS011;4555;49.918;7.012;2022-10-17T06:50:42;0.33;;;0.33;;
9040;SDS011;4555;49.918;7.012;2022-10-17T06:53:20;0.10;;;0.10;;
9040;SDS011;4555;49.918;7.012;2022-10-17T06:55:49;3.60;;;0.60;;
9040;SDS011;4555;49.918;7.012;2022-10-17T06:58:40;0.27;;;0.27;;
9040;SDS011;4555;49.918;7.012;2022-10-17T07:01:17;0.23;;;0.23;;
9040;SDS011;4555;49.918;7.012;2022-10-17T07:03:46;0.30;;;0.30;;
9040;SDS011;4555;49.918;7.012;2022-10-17T07:06:13;0.20;;;0.20;;
9040;SDS011;4555;49.918;7.012;2022-10-17T07:08:41;0.63;;;0.23;;
9040;SDS011;4555;49.918;7.012;2022-10-17T07:11:12;0.40;;;0.40;;
9040;SDS011;4555;49.918;7.012;2022-10-17T07:13:40;0.40;;;0.40;;
9040;SDS011;4555;49.918;7.012;2022-10-17T07:16:07;0.20;;;0.20;;
9040;SDS011;4555;49.918;7.012;2022-10-17T07:18:34;0.40;;;0.40;;
9040;SDS011;4555;49.918;7.012;2022-10-17T07:21:00;0.50;;;0.50;;
9040;SDS011;4555;49.918;7.012;2022-10-17T07:23:26;0.30;;;0.30;;
9040;SDS011;4555;49.918;7.012;2022-10-17T07:25:52;0.47;;;0.47;;
9040;SDS011;4555;49.918;7.012;2022-10-17T07:28:17;0.53;;;0.53;;
9040;SDS011;4555;49.918;7.012;2022-10-17T07:30:44;1.50;;;0.70;;
9040;SDS011;4555;49.918;7.012;2022-10-17T07:33:11;0.27;;;0.27;;
9040;SDS011;4555;49.918;7.012;2022-10-17T07:35:37;0.47;;;0.47;;
9040;SDS011;4555;49.918;7.012;2022-10-17T07:38:06;0.10;;;0.10;;
9040;SDS011;4555;49.918;7.012;2022-10-17T07:40:33;0.57;;;0.33;;
9040;SDS011;4555;49.918;7.012;2022-10-17T07:42:59;0.13;;;0.13;;
9040;SDS011;4555;49.918;7.012;2022-10-17T07:45:25;0.30;;;0.30;;
9040;SDS011;4555;49.918;7.012;2022-10-17T07:47:55;0.77;;;0.73;;
9040;SDS011;4555;49.918;7.012;2022-10-17T07:50:22;0.43;;;0.43;;
9040;SDS011;4555;49.918;7.012;2022-10-17T07:52:48;0.30;;;0.30;;
9040;SDS011;4555;49.918;7.012;2022-10-17T07:55:13;0.60;;;0.60;;
9040;SDS011;4555;49.918;7.012;2022-10-17T07:57:39;0.60;;;0.60;;
9040;SDS011;4555;49.918;7.012;2022-10-17T08:00:06;0.73;;;0.73;;
9040;SDS011;4555;49.918;7.012;2022-10-17T08:02:37;0.20;;;0.20;;
9040;SDS011;4555;49.918;7.012;2022-10-17T08:05:03;0.57;;;0.57;;
9040;SDS011;4555;49.918;7.012;2022-10-17T08:07:29;0.60;;;0.60;;
9040;SDS011;4555;49.918;7.012;2022-10-17T08:09:55;0.73;;;0.73;;
9040;SDS011;4555;49.918;7.012;2022-10-17T08:12:20;1.07;;;0.97;;
9040;SDS011;4555;49.918;7.012;2022-10-17T08:14:46;0.60;;;0.60;;
9040;SDS011;4555;49.918;7.012;2022-10-17T08:17:12;0.60;;;0.60;;
9040;SDS011;4555;49.918;7.012;2022-10-17T08:19:40;0.67;;;0.67;;
9040;SDS011;4555;49.918;7.012;2022-10-17T08:22:06;0.60;;;0.60;;
9040;SDS011;4555;49.918;7.012;2022-10-17T08:24:32;0.37;;;0.37;;
9040;SDS011;4555;49.918;7.012;2022-10-17T08:26:58;0.37;;;0.37;;
9040;SDS011;4555;49.918;7.012;2022-10-17T08:29:24;0.30;;;0.30;;
9040;SDS011;4555;49.918;7.012;2022-10-17T08:31:50;0.50;;;0.50;;
9040;SDS011;4555;49.918;7.012;2022-10-17T08:34:16;1.13;;;0.83;;
9040;SDS011;4555;49.918;7.012;2022-10-17T08:36:42;0.50;;;0.50;;
9040;SDS011;4555;49.918;7.012;2022-10-17T08:39:08;0.57;;;0.57;;
9040;SDS011;4555;49.918;7.012;2022-10-17T08:47:18;1.10;;;1.00;;
9040;SDS011;4555;49.918;7.012;2022-10-17T08:49:54;2.10;;;0.67;;
9040;SDS011;4555;49.918;7.012;2022-10-17T08:55:12;0.40;;;0.40;;
9040;SDS011;4555;49.918;7.012;2022-10-17T08:57:55;0.60;;;0.60;;
9040;SDS011;4555;49.918;7.012;2022-10-17T09:00:20;0.53;;;0.47;;
9040;SDS011;4555;49.918;7.012;2022-10-17T09:02:49;0.80;;;0.80;;
9040;SDS011;4555;49.918;7.012;2022-10-17T09:10:45;0.67;;;0.67;;
9040;SDS011;4555;49.918;7.012;2022-10-17T09:13:29;0.73;;;0.73;;
9040;SDS011;4555;49.918;7.012;2022-10-17T09:16:13;0.30;;;0.30;;
9040;SDS011;4555;49.918;7.012;2022-10-17T09:18:49;0.77;;;0.77;;
9040;SDS011;4555;49.918;7.012;2022-10-17T09:21:23;0.70;;;0.70;;
9040;SDS011;4555;49.918;7.012;2022-10-17T09:23:58;0.50;;;0.50;;
9040;SDS011;4555;49.918;7.012;2022-10-17T09:26:27;0.70;;;0.70;;
9040;SDS011;4555;49.918;7.012;2022-10-17T09:28:56;0.70;;;0.70;;
9040;SDS011;4555;49.918;7.012;2022-10-17T09:31:25;0.87;;;0.87;;
9040;SDS011;4555;49.918;7.012;2022-10-17T09:33:56;0.67;;;0.67;;
9040;SDS011;4555;49.918;7.012;2022-10-17T09:36:30;0.97;;;0.97;;
9040;SDS011;4555;49.918;7.012;2022-10-17T09:39:02;1.07;;;1.07;;
9040;SDS011;4555;49.918;7.012;2022-10-17T09:41:33;0.73;;;0.70;;
9040;SDS011;4555;49.918;7.012;2022-10-17T09:44:10;0.60;;;0.60;;
9040;SDS011;4555;49.918;7.012;2022-10-17T09:46:45;0.70;;;0.70;;
9040;SDS011;4555;49.918;7.012;2022-10-17T09:49:38;0.70;;;0.70;;
9040;SDS011;4555;49.918;7.012;2022-10-17T09:52:19;0.90;;;0.90;;
9040;SDS011;4555;49.918;7.012;2022-10-17T09:54:52;0.97;;;0.97;;
9040;SDS011;4555;49.918;7.012;2022-10-17T09:57:19;1.10;;;1.10;;
9040;SDS011;4555;49.918;7.012;2022-10-17T10:02:25;0.60;;;0.60;;
9040;SDS011;4555;49.918;7.012;2022-10-17T10:07:44;0.97;;;0.97;;
9040;SDS011;4555;49.918;7.012;2022-10-17T10:10:26;0.73;;;0.70;;
9040;SDS011;4555;49.918;7.012;2022-10-17T10:15:37;0.70;;;0.70;;
9040;SDS011;4555;49.918;7.012;2022-10-17T10:23:30;0.67;;;0.67;;
9040;SDS011;4555;49.918;7.012;2022-10-17T10:26:03;0.53;;;0.53;;
9040;SDS011;4555;49.918;7.012;2022-10-17T10:28:54;0.80;;;0.80;;
9040;SDS011;4555;49.918;7.012;2022-10-17T10:31:27;1.80;;;0.50;;
9040;SDS011;4555;49.918;7.012;2022-10-17T10:33:59;1.17;;;0.70;;
9040;SDS011;4555;49.918;7.012;2022-10-17T10:36:41;0.57;;;0.57;;
9040;SDS011;4555;49.918;7.012;2022-10-17T10:39:09;0.80;;;0.80;;
9040;SDS011;4555;49.918;7.012;2022-10-17T10:41:49;3.30;;;0.80;;
9040;SDS011;4555;49.918;7.012;2022-10-17T10:44:15;0.80;;;0.80;;
9040;SDS011;4555;49.918;7.012;2022-10-17T10:46:43;0.70;;;0.67;;
9040;SDS011;4555;49.918;7.012;2022-10-17T10:49:26;0.60;;;0.60;;
9040;SDS011;4555;49.918;7.012;2022-10-17T10:51:54;0.57;;;0.57;;
9040;SDS011;4555;49.918;7.012;2022-10-17T10:54:25;2.23;;;0.70;;
9040;SDS011;4555;49.918;7.012;2022-10-17T10:56:59;0.57;;;0.57;;
9040;SDS011;4555;49.918;7.012;2022-10-17T11:02:26;0.80;;;0.80;;
9040;SDS011;4555;49.918;7.012;2022-10-17T11:07:31;0.77;;;0.77;;
9040;SDS011;4555;49.918;7.012;2022-10-17T11:10:13;0.80;;;0.80;;
9040;SDS011;4555;49.918;7.012;2022-10-17T11:15:44;0.90;;;0.90;;
9040;SDS011;4555;49.918;7.012;2022-10-17T11:18:20;0.80;;;0.70;;
9040;SDS011;4555;49.918;7.012;2022-10-17T11:20:51;0.97;;;0.97;;
9040;SDS011;4555;49.918;7.012;2022-10-17T11:23:23;0.70;;;0.47;;
9040;SDS011;4555;49.918;7.012;2022-10-17T11:26:12;0.70;;;0.70;;
9040;SDS011;4555;49.918;7.012;2022-10-17T11:28:51;0.60;;;0.60;;
9040;SDS011;4555;49.918;7.012;2022-10-17T11:31:18;0.80;;;0.80;;
9040;SDS011;4555;49.918;7.012;2022-10-17T11:33:48;0.53;;;0.53;;
9040;SDS011;4555;49.918;7.012;2022-10-17T11:36:21;1.07;;;0.80;;
9040;SDS011;4555;49.918;7.012;2022-10-17T11:39:01;0.83;;;0.80;;
9040;SDS011;4555;49.918;7.012;2022-10-17T11:41:45;0.73;;;0.73;;
9040;SDS011;4555;49.918;7.012;2022-10-17T11:44:26;0.60;;;0.60;;
9040;SDS011;4555;49.918;7.012;2022-10-17T11:47:13;0.60;;;0.60;;
9040;SDS011;4555;49.918;7.012;2022-10-17T11:50:02;1.30;;;0.83;;
9040;SDS011;4555;49.918;7.012;2022-10-17T11:52:44;0.77;;;0.77;;
9040;SDS011;4555;49.918;7.012;2022-10-17T11:55:17;0.57;;;0.57;;
9040;SDS011;4555;49.918;7.012;2022-10-17T11:57:55;0.70;;;0.70;;
9040;SDS011;4555;49.918;7.012;2022-10-17T12:00:47;1.10;;;1.03;;
9040;SDS011;4555;49.918;7.012;2022-10-17T12:03:30;0.63;;;0.60;;
9040;SDS011;4555;49.918;7.012;2022-10-17T12:06:10;0.77;;;0.77;;
9040;SDS011;4555;49.918;7.012;2022-10-17T12:08:44;0.53;;;0.53;;
9040;SDS011;4555;49.918;7.012;2022-10-17T12:14:40;0.90;;;0.90;;
9040;SDS011;4555;49.918;7.012;2022-10-17T12:19:46;0.93;;;0.77;;
9040;SDS011;4555;49.918;7.012;2022-10-17T12:22:20;1.07;;;1.00;;
9040;SDS011;4555;49.918;7.012;2022-10-17T12:24:57;0.60;;;0.60;;
9040;SDS011;4555;49.918;7.012;2022-10-17T12:30:02;0.93;;;0.63;;
9040;SDS011;4555;49.918;7.012;2022-10-17T12:32:31;1.03;;;1.03;;
9040;SDS011;4555;49.918;7.012;2022-10-17T12:34:56;0.70;;;0.70;;
9040;SDS011;4555;49.918;7.012;2022-10-17T12:45:58;0.90;;;0.90;;
9040;SDS011;4555;49.918;7.012;2022-10-17T12:51:10;1.70;;;0.93;;
9040;SDS011;4555;49.918;7.012;2022-10-17T12:56:35;0.60;;;0.57;;
9040;SDS011;4555;49.918;7.012;2022-10-17T12:59:08;0.53;;;0.53;;
9040;SDS011;4555;49.918;7.012;2022-10-17T13:01:42;0.60;;;0.60;;
9040;SDS011;4555;49.918;7.012;2022-10-17T13:04:10;0.87;;;0.87;;
9040;SDS011;4555;49.918;7.012;2022-10-17T13:06:37;0.87;;;0.70;;
9040;SDS011;4555;49.918;7.012;2022-10-17T13:09:25;0.57;;;0.30;;
9040;SDS011;4555;49.918;7.012;2022-10-17T13:11:57;2.00;;;0.70;;
9040;SDS011;4555;49.918;7.012;2022-10-17T13:14:24;0.63;;;0.63;;
9040;SDS011;4555;49.918;7.012;2022-10-17T13:19:22;0.97;;;0.77;;
9040;SDS011;4555;49.918;7.012;2022-10-17T13:24:20;0.47;;;0.47;;
9040;SDS011;4555;49.918;7.012;2022-10-17T13:26:46;1.37;;;0.87;;
9040;SDS011;4555;49.918;7.012;2022-10-17T13:29:13;0.63;;;0.63;;
9040;SDS011;4555;49.918;7.012;2022-10-17T13:31:40;0.90;;;0.70;;
9040;SDS011;4555;49.918;7.012;2022-10-17T13:34:17;1.80;;;0.67;;
9040;SDS011;4555;49.918;7.012;2022-10-17T13:36:46;2.77;;;1.00;;
9040;SDS011;4555;49.918;7.012;2022-10-17T13:39:16;0.33;;;0.33;;
9040;SDS011;4555;49.918;7.012;2022-10-17T13:41:44;0.93;;;0.90;;
9040;SDS011;4555;49.918;7.012;2022-10-17T13:44:18;0.67;;;0.67;;
9040;SDS011;4555;49.918;7.012;2022-10-17T13:46:46;0.43;;;0.43;;
9040;SDS011;4555;49.918;7.012;2022-10-17T13:51:56;2.00;;;0.87;;
9040;SDS011;4555;49.918;7.012;2022-10-17T13:54:39;0.90;;;0.70;;
9040;SDS011;4555;49.918;7.012;2022-10-17T13:57:23;0.60;;;0.60;;
9040;SDS011;4555;49.918;7.012;2022-10-17T13:59:52;0.70;;;0.70;;
9040;SDS011;4555;49.918;7.012;2022-10-17T14:02:21;0.70;;;0.70;;
9040;SDS011;4555;49.918;7.012;2022-10-17T14:04:58;0.53;;;0.53;;
9040;SDS011;4555;49.918;7.012;2022-10-17T14:07:27;0.87;;;0.87;;
9040;SDS011;4555;49.918;7.012;2022-10-17T14:10:01;2.93;;;0.80;;
9040;SDS011;4555;49.918;7.012;2022-10-17T14:12:30;2.23;;;0.87;;
9040;SDS011;4555;49.918;7.012;2022-10-17T14:14:57;1.43;;;0.53;;
9040;SDS011;4555;49.918;7.012;2022-10-17T14:17:23;7.00;;;1.03;;
9040;SDS011;4555;49.918;7.012;2022-10-17T14:19:52;0.80;;;0.80;;
9040;SDS011;4555;49.918;7.012;2022-10-17T14:24:52;0.37;;;0.37;;
9040;SDS011;4555;49.918;7.012;2022-10-17T14:27:29;0.73;;;0.70;;
9040;SDS011;4555;49.918;7.012;2022-10-17T14:29:55;0.70;;;0.70;;
9040;SDS011;4555;49.918;7.012;2022-10-17T14:32:28;0.53;;;0.53;;
9040;SDS011;4555;49.918;7.012;2022-10-17T14:34:57;0.73;;;0.73;;
9040;SDS011;4555;49.918;7.012;2022-10-17T14:40:14;1.53;;;0.53;;
9040;SDS011;4555;49.918;7.012;2022-10-17T14:42:40;0.53;;;0.53;;
9040;SDS011;4555;49.918;7.012;2022-10-17T14:45:07;0.97;;;0.67;;
9040;SDS011;4555;49.918;7.012;2022-10-17T14:47:36;0.93;;;0.93;;
9040;SDS011;4555;49.918;7.012;2022-10-17T14:50:04;0.80;;;0.80;;
9040;SDS011;4555;49.918;7.012;2022-10-17T14:52:36;0.60;;;0.60;;
9040;SDS011;4555;49.918;7.012;2022-10-17T14:55:19;0.93;;;0.67;;
9040;SDS011;4555;49.918;7.012;2022-10-17T14:57:47;1.77;;;0.80;;
9040;SDS011;4555;49.918;7.012;2022-10-17T15:00:17;0.50;;;0.50;;
9040;SDS011;4555;49.918;7.012;2022-10-17T15:02:45;1.60;;;0.50;;
9040;SDS011;4555;49.918;7.012;2022-10-17T15:05:12;0.50;;;0.50;;
9040;SDS011;4555;49.918;7.012;2022-10-17T15:07:39;1.17;;;0.90;;
9040;SDS011;4555;49.918;7.012;2022-10-17T15:10:05;2.67;;;1.03;;
9040;SDS011;4555;49.918;7.012;2022-10-17T15:12:30;0.63;;;0.63;;
9040;SDS011;4555;49.918;7.012;2022-10-17T15:14:56;0.70;;;0.70;;
9040;SDS011;4555;49.918;7.012;2022-10-17T15:17:24;0.93;;;0.73;;
9040;SDS011;4555;49.918;7.012;2022-10-17T15:19:50;1.40;;;0.97;;
9040;SDS011;4555;49.918;7.012;2022-10-17T15:22:15;0.87;;;0.80;;
9040;SDS011;4555;49.918;7.012;2022-10-17T15:24:42;1.90;;;0.93;;
9040;SDS011;4555;49.918;7.012;2022-10-17T15:27:43;0.40;;;0.40;;
9040;SDS011;4555;49.918;7.012;2022-10-17T15:30:02;0.50;;;0.50;;
9040;SDS011;4555;49.918;7.012;2022-10-17T15:32:28;1.30;;;1.07;;
9040;SDS011;4555;49.918;7.012;2022-10-17T15:34:54;0.73;;;0.43;;
9040;SDS011;4555;49.918;7.012;2022-10-17T15:37:20;0.60;;;0.60;;
9040;SDS011;4555;49.918;7.012;2022-10-17T15:39:48;0.90;;;0.73;;
9040;SDS011;4555;49.918;7.012;2022-10-17T15:42:17;0.43;;;0.43;;
9040;SDS011;4555;49.918;7.012;2022-10-17T15:44:43;0.40;;;0.40;;
9040;SDS011;4555;49.918;7.012;2022-10-17T15:47:21;0.57;;;0.57;;
9040;SDS011;4555;49.918;7.012;2022-10-17T15:49:49;1.77;;;0.93;;
9040;SDS011;4555;49.918;7.012;2022-10-17T15:52:15;1.33;;;0.90;;
9040;SDS011;4555;49.918;7.012;2022-10-17T15:54:40;2.90;;;0.90;;
9040;SDS011;4555;49.918;7.012;2022-10-17T15:57:13;0.70;;;0.67;;
9040;SDS011;4555;49.918;7.012;2022-10-17T15:59:42;0.63;;;0.63;;
9040;SDS011;4555;49.918;7.012;2022-10-17T16:02:11;0.60;;;0.60;;
9040;SDS011;4555;49.918;7.012;2022-10-17T16:04:38;0.87;;;0.87;;
9040;SDS011;4555;49.918;7.012;2022-10-17T16:07:04;0.93;;;0.93;;
9040;SDS011;4555;49.918;7.012;2022-10-17T16:09:30;0.83;;;0.83;;
9040;SDS011;4555;49.918;7.012;2022-10-17T16:11:55;0.70;;;0.70;;
9040;SDS011;4555;49.918;7.012;2022-10-17T16:14:21;0.50;;;0.50;;
9040;SDS011;4555;49.918;7.012;2022-10-17T16:16:46;0.90;;;0.90;;
9040;SDS011;4555;49.918;7.012;2022-10-17T16:19:12;0.60;;;0.60;;
9040;SDS011;4555;49.918;7.012;2022-10-17T16:21:38;1.13;;;0.83;;
9040;SDS011;4555;49.918;7.012;2022-10-17T16:24:05;1.10;;;1.00;;
9040;SDS011;4555;49.918;7.012;2022-10-17T16:26:33;0.40;;;0.40;;
9040;SDS011;4555;49.918;7.012;2022-10-17T16:28:59;0.53;;;0.53;;
9040;SDS011;4555;49.918;7.012;2022-10-17T16:31:30;0.97;;;0.97;;
9040;SDS011;4555;49.918;7.012;2022-10-17T16:33:59;1.50;;;0.87;;
9040;SDS011;4555;49.918;7.012;2022-10-17T16:36:26;2.43;;;1.03;;
9040;SDS011;4555;49.918;7.012;2022-10-17T16:38:51;2.53;;;0.60;;
9040;SDS011;4555;49.918;7.012;2022-10-17T16:43:54;2.23;;;1.00;;
9040;SDS011;4555;49.918;7.012;2022-10-17T16:46:22;1.07;;;0.77;;
9040;SDS011;4555;49.918;7.012;2022-10-17T16:48:49;0.60;;;0.60;;
9040;SDS011;4555;49.918;7.012;2022-10-17T16:51:15;0.73;;;0.73;;
9040;SDS011;4555;49.918;7.012;2022-10-17T16:53:43;4.10;;;1.23;;
9040;SDS011;4555;49.918;7.012;2022-10-17T16:56:11;1.57;;;0.80;;
9040;SDS011;4555;49.918;7.012;2022-10-17T16:58:42;2.73;;;0.70;;
9040;SDS011;4555;49.918;7.012;2022-10-17T17:01:09;0.70;;;0.70;;
9040;SDS011;4555;49.918;7.012;2022-10-17T17:03:40;1.93;;;1.00;;
9040;SDS011;4555;49.918;7.012;2022-10-17T17:06:08;1.00;;;1.00;;
9040;SDS011;4555;49.918;7.012;2022-10-17T17:08:37;0.90;;;0.90;;
9040;SDS011;4555;49.918;7.012;2022-10-17T17:11:06;0.73;;;0.73;;
9040;SDS011;4555;49.918;7.012;2022-10-17T17:13:36;0.80;;;0.80;;
9040;SDS011;4555;49.918;7.012;2022-10-17T17:16:03;3.83;;;1.00;;